Time;durP1;ratioP1;P1;durP2;ratioP2;P2;SDS_P1;SDS_P2;PMS_P1;PMS_P2;Temp;Humidity;BMP_temperature;BMP_pressure;BME280_temperature;BME280_humidity;BME280_pressure;Samples;Min_cycle;Max_cycle;Signal;HPM_P1;HPM_P2
2023/01/02 00:00:19;;;;;;;;;;;12.60;99.90;;;;;;5012453;28;19972;-70
2023/01/02 00:02:48;;;;;;;;;;;12.60;99.90;;;;;;5013819;28;19975;-70
2023/01/02 00:05:15;;;;;;;;;;;12.60;99.90;;;;;;5012955;28;19972;-70
2023/01/02 00:07:43;;;;;;;;;;;12.60;99.90;;;;;;5013057;28;19975;-70
2023/01/02 00:10:11;;;;;;;;;;;12.60;99.90;;;;;;5012691;28;20529;-70
2023/01/02 00:12:40;;;;;;;;;;;12.60;99.90;;;;;;5014524;28;20508;-71
2023/01/02 00:15:08;;;;;;;;;;;12.70;99.90;;;;;;5027512;28;20432;-70
2023/01/02 00:17:36;;;;;;;;;;;12.60;99.90;;;;;;5017430;28;19971;-70
2023/01/02 00:20:04;;;;;;;;;;;12.60;99.90;;;;;;5025729;28;19972;-70
2023/01/02 00:22:32;;;;;;;;;;;12.60;99.90;;;;;;5032972;28;20519;-70
2023/01/02 00:24:59;;;;;;;;;;;12.60;99.90;;;;;;5033129;28;20053;-69
2023/01/02 00:27:27;;;;;;;;;;;12.50;99.90;;;;;;5032844;28;19967;-70
2023/01/02 00:29:56;;;;;;;;;;;12.50;99.90;;;;;;5032347;28;19976;-70
2023/01/02 00:32:24;;;;;;;;;;;12.40;99.90;;;;;;5015160;28;19965;-69
2023/01/02 00:34:51;;;;;;;;;;;12.30;99.90;;;;;;5011142;28;19970;-69
2023/01/02 00:37:19;;;;;;;;;;;12.30;99.90;;;;;;5009162;28;20002;-69
2023/01/02 00:39:47;;;;;;;;;;;12.40;99.90;;;;;;5008617;28;20033;-70
2023/01/02 00:42:14;;;;;;;;;;;12.30;99.90;;;;;;5005512;28;19965;-69
2023/01/02 00:44:42;;;;;;;;;;;12.20;99.90;;;;;;5013942;28;19962;-70
2023/01/02 00:47:11;;;;;;;;;;;12.20;99.90;;;;;;5009555;28;19966;-70
2023/01/02 00:49:39;;;;;;;;;;;12.30;99.90;;;;;;5006428;28;20323;-69
2023/01/02 00:52:06;;;;;;;;;;;12.40;99.90;;;;;;5007215;28;19968;-70
2023/01/02 00:54:34;;;;;;;;;;;12.40;99.90;;;;;;5012884;28;19964;-70
2023/01/02 00:57:02;;;;;;;;;;;12.40;99.90;;;;;;5006904;28;19970;-70
2023/01/02 00:59:29;;;;;;;;;;;12.40;99.90;;;;;;5009348;28;20053;-70
2023/01/02 01:01:57;;;;;;;;;;;12.50;99.90;;;;;;5012551;28;20068;-70
2023/01/02 01:04:26;;;;;;;;;;;12.40;99.90;;;;;;5010083;28;20087;-69
2023/01/02 01:06:54;;;;;;;;;;;12.40;99.90;;;;;;5007194;28;20052;-70
2023/01/02 01:09:22;;;;;;;;;;;12.40;99.90;;;;;;5007170;28;19968;-71
2023/01/02 01:11:50;;;;;;;;;;;12.50;99.90;;;;;;5007365;28;20051;-70
2023/01/02 01:14:17;;;;;;;;;;;12.50;99.90;;;;;;5014845;28;20059;-70
2023/01/02 01:16:45;;;;;;;;;;;12.50;99.90;;;;;;5011256;28;20732;-70
2023/01/02 01:19:13;;;;;;;;;;;12.60;99.90;;;;;;5053113;22;20456;-63
2023/01/02 01:21:42;;;;;;;;;;;12.60;99.90;;;;;;5047570;28;20007;-63
2023/01/02 01:24:10;;;;;;;;;;;12.60;99.90;;;;;;5052237;28;19982;-64
2023/01/02 01:26:37;;;;;;;;;;;12.60;99.90;;;;;;5051440;28;20062;-65
2023/01/02 01:29:05;;;;;;;;;;;12.60;99.90;;;;;;5039391;28;19968;-64
2023/01/02 01:31:33;;;;;;;;;;;12.60;99.90;;;;;;5035845;28;20025;-64
2023/01/02 01:34:00;;;;;;;;;;;12.60;99.90;;;;;;5036930;28;19962;-62
2023/01/02 01:36:28;;;;;;;;;;;12.60;99.90;;;;;;5028483;28;19968;-63
2023/01/02 01:38:57;;;;;;;;;;;12.60;99.90;;;;;;5027951;28;19971;-62
2023/01/02 01:41:25;;;;;;;;;;;12.50;99.90;;;;;;5030888;28;19968;-62
2023/01/02 01:43:53;;;;;;;;;;;12.30;99.90;;;;;;5031835;28;20018;-62
2023/01/02 01:46:23;;;;;;;;;;;12.20;99.90;;;;;;5028754;28;19965;-62
2023/01/02 01:48:54;;;;;;;;;;;12.20;99.90;;;;;;5028958;28;19964;-62
2023/01/02 01:51:22;;;;;;;;;;;12.10;99.90;;;;;;5033889;28;20064;-63
2023/01/02 01:53:52;;;;;;;;;;;12.10;99.90;;;;;;5033755;28;20418;-62
2023/01/02 01:56:21;;;;;;;;;;;12.10;99.90;;;;;;5038386;28;20471;-63
2023/01/02 01:58:49;;;;;;;;;;;12.00;99.90;;;;;;5035382;28;20051;-63
2023/01/02 02:01:17;;;;;;;;;;;12.00;99.90;;;;;;5038010;28;19999;-64
2023/01/02 02:03:46;;;;;;;;;;;12.20;99.90;;;;;;5036947;28;19985;-63
2023/01/02 02:06:14;;;;;;;;;;;12.20;99.90;;;;;;5036444;28;19964;-63
2023/01/02 02:08:43;;;;;;;;;;;12.20;99.90;;;;;;5025975;28;19991;-63
2023/01/02 02:11:12;;;;;;;;;;;12.30;99.90;;;;;;5025182;28;19971;-62
2023/01/02 02:13:41;;;;;;;;;;;12.30;99.90;;;;;;5028437;28;19999;-63
2023/01/02 02:16:14;;;;;;;;;;;12.30;99.90;;;;;;5027812;28;20074;-63
2023/01/02 02:18:51;;;;;;;;;;;12.20;99.90;;;;;;5029571;28;19985;-63
2023/01/02 02:21:29;;;;;;;;;;;12.20;99.90;;;;;;5011265;28;20467;-63
2023/01/02 02:24:08;;;;;;;;;;;12.20;99.90;;;;;;5012033;28;19975;-63
2023/01/02 02:26:59;;;;;;;;;;;12.20;99.90;;;;;;5011933;28;19968;-63
2023/01/02 02:29:46;;;;;;;;;;;12.30;99.90;;;;;;5011639;28;20426;-63
2023/01/02 02:32:20;;;;;;;;;;;12.40;99.90;;;;;;5014149;28;19975;-63
2023/01/02 02:34:50;;;;;;;;;;;12.40;99.90;;;;;;5031267;28;19971;-63
2023/01/02 02:37:24;;;;;;;;;;;12.40;99.90;;;;;;5031042;28;20508;-63
2023/01/02 02:39:58;;;;;;;;;;;12.40;99.90;;;;;;5031424;28;20410;-63
2023/01/02 02:42:31;;;;;;;;;;;12.40;99.90;;;;;;5030932;28;19975;-63
2023/01/02 02:45:02;;;;;;;;;;;12.50;99.90;;;;;;5025442;28;20009;-63
2023/01/02 02:47:34;;;;;;;;;;;12.50;99.90;;;;;;5033892;28;20067;-62
2023/01/02 02:50:05;;;;;;;;;;;12.50;99.90;;;;;;5031462;28;19971;-63
2023/01/02 02:52:35;;;;;;;;;;;12.50;99.90;;;;;;5035298;28;19972;-63
2023/01/02 02:55:04;;;;;;;;;;;12.50;99.90;;;;;;5023602;28;20060;-63
2023/01/02 02:57:32;;;;;;;;;;;12.50;99.90;;;;;;5033868;28;20026;-63
2023/01/02 03:00:00;;;;;;;;;;;12.60;99.90;;;;;;5031266;28;19964;-63
2023/01/02 03:02:28;;;;;;;;;;;12.60;99.90;;;;;;5037701;28;20014;-63
2023/01/02 03:04:59;;;;;;;;;;;12.60;99.90;;;;;;5029598;28;20309;-63
2023/01/02 03:07:31;;;;;;;;;;;12.60;99.90;;;;;;5031896;28;19964;-64
2023/01/02 03:10:08;;;;;;;;;;;12.60;99.90;;;;;;5027222;28;19964;-64
2023/01/02 03:12:40;;;;;;;;;;;12.60;99.90;;;;;;5032957;28;20468;-64
2023/01/02 03:15:12;;;;;;;;;;;12.60;99.90;;;;;;5033217;28;19969;-64
2023/01/02 03:17:44;;;;;;;;;;;12.60;99.90;;;;;;5029853;28;19979;-64
2023/01/02 03:20:15;;;;;;;;;;;12.60;99.90;;;;;;5031403;28;19967;-63
2023/01/02 03:22:44;;;;;;;;;;;12.60;99.90;;;;;;5032071;28;19967;-63
2023/01/02 03:25:13;;;;;;;;;;;12.60;99.90;;;;;;5032623;28;20063;-63
2023/01/02 03:27:43;;;;;;;;;;;12.60;99.90;;;;;;5032348;28;19986;-63
2023/01/02 03:30:14;;;;;;;;;;;12.60;99.90;;;;;;5032670;28;19968;-64
2023/01/02 03:32:44;;;;;;;;;;;12.70;99.90;;;;;;5029258;28;19977;-63
2023/01/02 03:35:17;;;;;;;;;;;12.70;99.90;;;;;;5035928;28;21290;-63
2023/01/02 03:37:48;;;;;;;;;;;12.70;99.90;;;;;;5035880;28;20667;-63
2023/01/02 03:40:18;;;;;;;;;;;12.70;99.90;;;;;;5030809;28;19972;-64
2023/01/02 03:42:51;;;;;;;;;;;12.70;99.90;;;;;;5048404;28;19961;-64
2023/01/02 03:45:22;;;;;;;;;;;12.70;99.90;;;;;;5054278;28;20018;-65
2023/01/02 03:47:52;;;;;;;;;;;12.70;99.90;;;;;;5034985;28;19975;-64
2023/01/02 03:50:23;;;;;;;;;;;12.60;99.90;;;;;;5033144;28;20067;-64
2023/01/02 03:52:51;;;;;;;;;;;12.70;99.90;;;;;;5037572;28;19964;-63
2023/01/02 03:55:19;;;;;;;;;;;12.60;99.90;;;;;;5031979;28;19968;-63
2023/01/02 03:57:53;;;;;;;;;;;12.50;99.90;;;;;;5043285;28;20447;-64
2023/01/02 04:00:27;;;;;;;;;;;12.40;99.90;;;;;;5030107;28;20884;-62
2023/01/02 04:02:56;;;;;;;;;;;12.30;99.90;;;;;;5036420;28;20054;-63
2023/01/02 04:05:29;;;;;;;;;;;12.30;99.90;;;;;;5031150;28;19972;-64
2023/01/02 04:07:58;;;;;;;;;;;12.20;99.90;;;;;;5034195;28;19965;-63
2023/01/02 04:10:28;;;;;;;;;;;12.20;99.90;;;;;;5030130;28;20016;-64
2023/01/02 04:12:57;;;;;;;;;;;12.10;99.90;;;;;;5035371;28;19965;-64
2023/01/02 04:15:27;;;;;;;;;;;12.10;99.90;;;;;;5038419;28;20350;-63
2023/01/02 04:17:57;;;;;;;;;;;12.10;99.90;;;;;;5035531;28;19968;-63
2023/01/02 04:20:27;;;;;;;;;;;12.10;99.90;;;;;;5032558;28;20349;-64
2023/01/02 04:22:57;;;;;;;;;;;12.20;99.90;;;;;;5046566;28;19968;-63
2023/01/02 04:25:26;;;;;;;;;;;12.20;99.90;;;;;;5033851;28;20435;-63
2023/01/02 04:27:57;;;;;;;;;;;12.20;99.90;;;;;;5046388;28;19968;-63
2023/01/02 04:30:25;;;;;;;;;;;12.20;99.90;;;;;;5040492;28;20460;-63
2023/01/02 04:32:54;;;;;;;;;;;12.20;99.90;;;;;;5041162;28;20054;-63
2023/01/02 04:35:23;;;;;;;;;;;12.20;99.90;;;;;;5028869;28;19978;-63
2023/01/02 04:37:52;;;;;;;;;;;12.20;99.90;;;;;;5033285;28;20376;-63
2023/01/02 04:40:22;;;;;;;;;;;12.20;99.90;;;;;;5027641;28;20036;-63
2023/01/02 04:42:50;;;;;;;;;;;12.20;99.90;;;;;;5036046;28;19972;-63
2023/01/02 04:45:17;;;;;;;;;;;12.20;99.90;;;;;;5032411;28;19995;-63
2023/01/02 04:47:47;;;;;;;;;;;12.10;99.90;;;;;;5036616;28;19999;-64
2023/01/02 04:50:15;;;;;;;;;;;12.20;99.90;;;;;;5031527;28;19979;-64
2023/01/02 04:52:42;;;;;;;;;;;12.10;99.90;;;;;;5035438;28;20341;-63
2023/01/02 04:55:11;;;;;;;;;;;12.10;99.90;;;;;;5033330;28;19969;-64
2023/01/02 04:57:39;;;;;;;;;;;12.10;99.90;;;;;;5038087;28;19971;-62
2023/01/02 05:00:08;;;;;;;;;;;12.10;99.90;;;;;;5028719;28;20471;-62
2023/01/02 05:02:36;;;;;;;;;;;12.00;99.90;;;;;;5035649;28;19968;-62
2023/01/02 05:05:04;;;;;;;;;;;12.00;99.90;;;;;;5032248;28;20022;-62
2023/01/02 05:07:32;;;;;;;;;;;12.00;99.90;;;;;;5029829;28;19994;-63
2023/01/02 05:10:00;;;;;;;;;;;12.10;99.90;;;;;;5027327;28;19975;-63
2023/01/02 05:12:29;;;;;;;;;;;12.10;99.90;;;;;;5034442;28;20126;-61
2023/01/02 05:14:57;;;;;;;;;;;12.10;99.90;;;;;;5031242;28;20142;-63
2023/01/02 05:17:24;;;;;;;;;;;12.20;99.90;;;;;;5034695;28;19969;-62
2023/01/02 05:19:52;;;;;;;;;;;12.30;99.90;;;;;;5032270;28;19970;-63
2023/01/02 05:25:05;;;;;;;;;;;12.30;99.90;;;;;;5027240;28;19998;-63
2023/01/02 05:27:34;;;;;;;;;;;12.30;99.90;;;;;;5035923;28;20493;-61
2023/01/02 05:30:02;;;;;;;;;;;12.20;99.90;;;;;;5028565;28;19964;-62
2023/01/02 05:32:30;;;;;;;;;;;12.30;99.90;;;;;;5028104;28;19971;-62
2023/01/02 05:34:58;;;;;;;;;;;12.30;99.90;;;;;;5027392;28;20059;-62
2023/01/02 05:37:25;;;;;;;;;;;12.30;99.90;;;;;;5036300;28;20194;-61
2023/01/02 05:39:53;;;;;;;;;;;12.30;99.90;;;;;;5028645;28;20063;-62
2023/01/02 05:42:21;;;;;;;;;;;12.30;99.90;;;;;;5030539;28;20063;-63
2023/01/02 05:44:51;;;;;;;;;;;12.30;99.90;;;;;;5032364;28;19978;-62
2023/01/02 05:47:18;;;;;;;;;;;12.30;99.90;;;;;;5049333;28;20009;-62
2023/01/02 05:49:46;;;;;;;;;;;12.30;99.90;;;;;;5042582;28;19972;-62
2023/01/02 05:52:14;;;;;;;;;;;12.30;99.90;;;;;;5031585;28;19967;-62
2023/01/02 05:54:41;;;;;;;;;;;12.30;99.90;;;;;;5031600;28;20014;-63
2023/01/02 05:57:09;;;;;;;;;;;12.30;99.90;;;;;;5030829;28;19967;-62
2023/01/02 05:59:37;;;;;;;;;;;12.20;99.90;;;;;;5019177;28;19968;-62
2023/01/02 06:02:06;;;;;;;;;;;12.30;99.90;;;;;;5033950;28;20024;-64
2023/01/02 06:04:34;;;;;;;;;;;12.30;99.90;;;;;;5031556;28;20005;-63
2023/01/02 06:07:01;;;;;;;;;;;12.20;99.90;;;;;;5035653;28;20051;-64
2023/01/02 06:09:29;;;;;;;;;;;12.20;99.90;;;;;;5027336;28;20321;-63
2023/01/02 06:11:57;;;;;;;;;;;12.10;99.90;;;;;;5026594;28;19965;-63
2023/01/02 06:14:26;;;;;;;;;;;11.80;99.90;;;;;;5026165;28;20349;-63
2023/01/02 06:16:53;;;;;;;;;;;11.70;99.90;;;;;;5029756;28;19973;-64
2023/01/02 06:19:22;;;;;;;;;;;11.70;99.90;;;;;;5036429;28;19973;-63
2023/01/02 06:21:50;;;;;;;;;;;11.60;99.90;;;;;;5029529;28;19969;-63
2023/01/02 06:24:18;;;;;;;;;;;11.60;99.90;;;;;;5022886;28;19971;-63
2023/01/02 06:26:46;;;;;;;;;;;11.40;99.90;;;;;;5027938;28;19968;-63
2023/01/02 06:29:14;;;;;;;;;;;11.40;99.90;;;;;;5031522;28;20106;-62
2023/01/02 06:31:41;;;;;;;;;;;11.40;99.90;;;;;;5027389;28;19969;-64
2023/01/02 06:34:17;;;;;;;;;;;11.30;99.90;;;;;;5027344;28;20063;-64
2023/01/02 06:36:46;;;;;;;;;;;11.30;99.90;;;;;;5031724;28;19972;-64
2023/01/02 06:39:14;;;;;;;;;;;11.30;99.90;;;;;;5031076;28;20487;-64
2023/01/02 06:41:42;;;;;;;;;;;11.30;99.90;;;;;;5030031;28;19978;-63
2023/01/02 06:44:10;;;;;;;;;;;11.30;99.90;;;;;;5028601;28;20083;-63
2023/01/02 06:46:38;;;;;;;;;;;11.30;99.90;;;;;;5031434;28;20435;-64
2023/01/02 06:49:05;;;;;;;;;;;11.30;99.90;;;;;;5036248;28;19969;-63
2023/01/02 06:51:33;;;;;;;;;;;11.30;99.90;;;;;;5039151;28;20047;-63
2023/01/02 06:54:02;;;;;;;;;;;11.30;99.90;;;;;;5031820;28;19964;-63
2023/01/02 06:56:30;;;;;;;;;;;11.30;99.90;;;;;;5026253;28;20059;-63
2023/01/02 06:58:58;;;;;;;;;;;11.30;99.90;;;;;;5030956;28;19980;-64
2023/01/02 07:01:26;;;;;;;;;;;11.20;99.90;;;;;;5033657;28;20420;-64
2023/01/02 07:03:54;;;;;;;;;;;11.30;99.90;;;;;;5032077;28;19964;-64
2023/01/02 07:06:22;;;;;;;;;;;11.30;99.90;;;;;;5049606;28;19972;-64
2023/01/02 07:08:50;;;;;;;;;;;11.30;99.90;;;;;;5038264;28;20003;-64
2023/01/02 07:11:19;;;;;;;;;;;11.30;99.90;;;;;;5034003;28;19968;-64
2023/01/02 07:13:48;;;;;;;;;;;11.30;99.90;;;;;;5046963;28;19972;-64
2023/01/02 07:16:16;;;;;;;;;;;11.40;99.90;;;;;;5033491;28;19969;-63
2023/01/02 07:18:44;;;;;;;;;;;11.30;99.90;;;;;;5038924;28;19964;-64
2023/01/02 07:21:13;;;;;;;;;;;11.30;99.90;;;;;;5074160;22;20006;-65
2023/01/02 07:23:41;;;;;;;;;;;11.30;99.90;;;;;;5066858;28;20007;-65
2023/01/02 07:26:09;;;;;;;;;;;11.30;99.90;;;;;;5061609;28;20432;-65
2023/01/02 07:28:39;;;;;;;;;;;11.40;99.90;;;;;;5084849;28;20053;-65
2023/01/02 07:31:07;;;;;;;;;;;11.30;99.90;;;;;;5079152;28;20345;-65
2023/01/02 07:33:35;;;;;;;;;;;11.40;99.90;;;;;;5073800;28;20074;-65
2023/01/02 07:36:04;;;;;;;;;;;11.40;99.90;;;;;;5073708;28;20233;-65
2023/01/02 07:38:32;;;;;;;;;;;11.30;99.90;;;;;;5063350;28;19970;-65
2023/01/02 07:40:59;;;;;;;;;;;11.40;99.90;;;;;;5052658;28;20453;-65
2023/01/02 07:43:27;;;;;;;;;;;11.30;99.90;;;;;;5053294;28;19972;-65
2023/01/02 07:46:01;;;;;;;;;;;11.30;99.90;;;;;;5053890;28;19991;-65
2023/01/02 07:48:28;;;;;;;;;;;11.30;99.90;;;;;;5053776;28;19975;-65
2023/01/02 07:50:59;;;;;;;;;;;11.30;99.90;;;;;;5053301;28;20013;-65
2023/01/02 07:53:27;;;;;;;;;;;11.30;99.90;;;;;;5053909;28;19976;-65
2023/01/02 07:55:55;;;;;;;;;;;11.30;99.90;;;;;;5053303;28;20351;-65
2023/01/02 07:58:23;;;;;;;;;;;11.30;99.90;;;;;;5053815;28;20461;-65
2023/01/02 08:00:50;;;;;;;;;;;11.30;99.90;;;;;;5053123;28;20383;-65
2023/01/02 08:03:20;;;;;;;;;;;11.30;99.90;;;;;;5053346;28;19968;-65
2023/01/02 08:05:48;;;;;;;;;;;11.40;99.90;;;;;;5053380;28;20055;-65
2023/01/02 08:08:15;;;;;;;;;;;11.40;99.90;;;;;;5053494;28;20029;-65
2023/01/02 08:10:43;;;;;;;;;;;11.40;99.90;;;;;;5052221;28;19974;-65
2023/01/02 08:13:11;;;;;;;;;;;11.40;99.90;;;;;;5053371;28;19974;-65
2023/01/02 08:15:38;;;;;;;;;;;11.40;99.90;;;;;;5053324;28;19964;-65
2023/01/02 08:18:06;;;;;;;;;;;11.40;99.90;;;;;;5053358;28;20071;-65
2023/01/02 08:20:35;;;;;;;;;;;11.40;99.90;;;;;;5052311;28;19968;-65
2023/01/02 08:23:03;;;;;;;;;;;11.40;99.90;;;;;;5053323;28;20042;-65
2023/01/02 08:25:30;;;;;;;;;;;11.40;99.90;;;;;;5052704;28;19968;-65
2023/01/02 08:27:58;;;;;;;;;;;11.40;99.90;;;;;;5053273;28;19991;-65
2023/01/02 08:30:26;;;;;;;;;;;11.40;99.90;;;;;;5052471;28;20055;-65
2023/01/02 08:32:54;;;;;;;;;;;11.40;99.90;;;;;;5052926;28;20016;-65
2023/01/02 08:35:21;;;;;;;;;;;11.50;99.90;;;;;;5053362;28;20025;-65
2023/01/02 08:38:06;;;;;;;;;;;11.50;99.90;;;;;;5052701;28;19944;-65
2023/01/02 08:40:33;;;;;;;;;;;11.50;99.90;;;;;;5051647;28;19982;-65
2023/01/02 08:43:01;;;;;;;;;;;11.60;99.90;;;;;;5052965;28;20022;-65
2023/01/02 08:45:29;;;;;;;;;;;11.60;99.90;;;;;;5052768;28;20050;-65
2023/01/02 08:47:57;;;;;;;;;;;11.70;99.90;;;;;;5052792;28;20111;-65
2023/01/02 08:50:24;;;;;;;;;;;11.70;99.90;;;;;;5052021;28;19974;-65
2023/01/02 08:52:52;;;;;;;;;;;11.80;99.90;;;;;;5052705;28;19967;-65
2023/01/02 08:55:21;;;;;;;;;;;11.80;99.90;;;;;;5051805;28;20055;-65
2023/01/02 08:57:49;;;;;;;;;;;11.80;99.90;;;;;;5051329;28;20082;-65
2023/01/02 09:00:17;;;;;;;;;;;11.80;99.90;;;;;;5052008;28;20459;-65
2023/01/02 09:02:44;;;;;;;;;;;11.90;99.90;;;;;;5052523;28;19975;-65
2023/01/02 09:05:12;;;;;;;;;;;11.90;99.90;;;;;;5052444;28;20395;-65
2023/01/02 09:07:42;;;;;;;;;;;11.90;99.90;;;;;;5052361;28;20515;-65
2023/01/02 09:10:10;;;;;;;;;;;11.90;99.90;;;;;;5050970;28;20055;-65
2023/01/02 09:12:39;;;;;;;;;;;11.90;99.90;;;;;;5052124;28;20026;-65
2023/01/02 09:15:07;;;;;;;;;;;11.90;99.90;;;;;;5052531;28;19990;-65
2023/01/02 09:17:35;;;;;;;;;;;11.90;99.90;;;;;;5052034;28;20070;-65
2023/01/02 09:20:03;;;;;;;;;;;12.00;99.90;;;;;;5051150;28;20062;-65
2023/01/02 09:22:31;;;;;;;;;;;12.00;99.90;;;;;;5052312;28;19972;-65
2023/01/02 09:24:59;;;;;;;;;;;12.00;99.90;;;;;;5051559;28;20015;-65
2023/01/02 09:27:26;;;;;;;;;;;12.00;99.90;;;;;;5052260;28;20061;-65
2023/01/02 09:29:55;;;;;;;;;;;12.00;99.90;;;;;;5051379;28;19980;-65
2023/01/02 09:32:23;;;;;;;;;;;12.10;99.90;;;;;;5052069;28;20062;-65
2023/01/02 09:34:51;;;;;;;;;;;12.10;99.90;;;;;;5051770;28;19968;-65
2023/01/02 09:37:19;;;;;;;;;;;12.20;99.90;;;;;;5051793;28;19975;-65
2023/01/02 09:39:46;;;;;;;;;;;12.30;99.90;;;;;;5050438;28;19964;-65
2023/01/02 09:42:15;;;;;;;;;;;12.30;99.90;;;;;;5051744;28;19971;-65
2023/01/02 09:44:46;;;;;;;;;;;12.30;99.90;;;;;;5051805;28;20466;-65
2023/01/02 09:47:17;;;;;;;;;;;12.30;99.90;;;;;;5051908;28;20347;-65
2023/01/02 09:49:46;;;;;;;;;;;12.30;99.90;;;;;;5050831;28;20049;-65
2023/01/02 09:52:18;;;;;;;;;;;12.30;99.90;;;;;;5051897;28;20079;-65
2023/01/02 09:54:46;;;;;;;;;;;12.40;99.90;;;;;;5051516;28;19972;-65
2023/01/02 09:57:24;;;;;;;;;;;12.40;99.90;;;;;;5051137;28;19975;-65
2023/01/02 09:59:57;;;;;;;;;;;12.40;99.90;;;;;;5050984;28;20461;-65
2023/01/02 10:02:32;;;;;;;;;;;12.40;99.90;;;;;;5051478;28;20445;-65
2023/01/02 10:05:17;;;;;;;;;;;12.40;99.90;;;;;;5051732;28;19968;-65
2023/01/02 10:07:49;;;;;;;;;;;12.40;99.90;;;;;;5051149;28;20015;-65
2023/01/02 10:10:21;;;;;;;;;;;12.40;99.90;;;;;;5050581;28;19967;-65
2023/01/02 10:12:55;;;;;;;;;;;12.40;99.90;;;;;;5050441;28;19967;-65
2023/01/02 10:15:25;;;;;;;;;;;12.40;99.90;;;;;;5051444;28;20066;-65
2023/01/02 10:17:56;;;;;;;;;;;12.40;99.90;;;;;;5051376;28;19989;-65
2023/01/02 10:20:27;;;;;;;;;;;12.50;99.90;;;;;;5050631;28;20058;-65
2023/01/02 10:22:57;;;;;;;;;;;12.50;99.90;;;;;;5051642;28;19967;-65
2023/01/02 10:25:27;;;;;;;;;;;12.50;99.90;;;;;;5051259;28;20379;-65
2023/01/02 10:27:57;;;;;;;;;;;12.50;99.90;;;;;;5051119;28;20063;-65
2023/01/02 10:30:26;;;;;;;;;;;12.50;99.90;;;;;;5050553;28;20382;-65
2023/01/02 10:32:58;;;;;;;;;;;12.40;99.90;;;;;;5051467;28;19978;-65
2023/01/02 10:35:32;;;;;;;;;;;12.40;99.90;;;;;;5051641;28;20019;-65
2023/01/02 10:38:01;;;;;;;;;;;12.40;99.90;;;;;;5051303;28;20080;-65
2023/01/02 10:40:29;;;;;;;;;;;12.40;99.90;;;;;;5050016;28;20058;-65
2023/01/02 10:42:59;;;;;;;;;;;12.40;99.90;;;;;;5050629;28;20065;-65
2023/01/02 10:45:27;;;;;;;;;;;12.40;99.90;;;;;;5051085;28;19970;-65
2023/01/02 10:47:56;;;;;;;;;;;12.40;99.90;;;;;;5032837;28;19965;-65
2023/01/02 10:50:26;;;;;;;;;;;12.40;99.90;;;;;;5038803;28;19978;-65
2023/01/02 10:53:03;;;;;;;;;;;12.40;99.90;;;;;;5051075;28;20085;-65
2023/01/02 10:55:33;;;;;;;;;;;12.40;99.90;;;;;;5050942;28;19972;-65
2023/01/02 10:58:02;;;;;;;;;;;12.40;99.90;;;;;;5050856;28;19974;-64
2023/01/02 11:00:31;;;;;;;;;;;12.40;99.90;;;;;;5049950;28;19995;-65
2023/01/02 11:03:05;;;;;;;;;;;12.40;99.90;;;;;;5050990;28;20008;-65
2023/01/02 11:05:33;;;;;;;;;;;12.40;99.90;;;;;;5051017;28;20348;-65
2023/01/02 11:08:06;;;;;;;;;;;12.40;99.90;;;;;;5050842;28;19972;-65
2023/01/02 11:10:35;;;;;;;;;;;12.30;99.90;;;;;;5050034;28;19991;-65
2023/01/02 11:13:03;;;;;;;;;;;12.30;99.90;;;;;;5051530;28;20413;-65
2023/01/02 11:15:33;;;;;;;;;;;12.30;99.90;;;;;;5050604;28;20455;-65
2023/01/02 11:18:03;;;;;;;;;;;12.30;99.90;;;;;;5051625;28;20012;-65
2023/01/02 11:20:32;;;;;;;;;;;12.30;99.90;;;;;;5053423;28;19968;-65
2023/01/02 11:23:01;;;;;;;;;;;12.30;99.90;;;;;;5054818;28;20067;-65
2023/01/02 11:25:32;;;;;;;;;;;12.20;99.90;;;;;;5054930;28;20444;-65
2023/01/02 11:28:00;;;;;;;;;;;12.20;99.90;;;;;;5055705;28;19976;-65
2023/01/02 11:30:30;;;;;;;;;;;12.20;99.90;;;;;;5053446;28;19968;-65
2023/01/02 11:33:05;;;;;;;;;;;12.20;99.90;;;;;;5054137;28;19990;-65
2023/01/02 11:35:36;;;;;;;;;;;12.20;99.90;;;;;;5054135;28;19968;-65
2023/01/02 11:38:04;;;;;;;;;;;12.10;99.90;;;;;;5053989;28;19968;-65
2023/01/02 11:40:32;;;;;;;;;;;12.10;99.90;;;;;;5050549;28;20074;-65
2023/01/02 11:45:49;;;;;;;;;;;12.10;99.90;;;;;;5053898;28;20054;-65
2023/01/02 11:48:20;;;;;;;;;;;12.10;99.90;;;;;;5053599;28;19972;-65
2023/01/02 11:50:48;;;;;;;;;;;12.10;99.90;;;;;;5053094;28;20083;-65
2023/01/02 11:53:19;;;;;;;;;;;12.10;99.90;;;;;;5053657;28;19975;-65
2023/01/02 11:55:49;;;;;;;;;;;12.10;99.90;;;;;;5053578;28;19976;-65
2023/01/02 11:58:19;;;;;;;;;;;12.10;99.90;;;;;;5053669;28;20499;-65
2023/01/02 12:00:48;;;;;;;;;;;12.10;99.90;;;;;;5052695;28;19971;-65
2023/01/02 12:03:17;;;;;;;;;;;12.10;99.90;;;;;;5053326;28;20441;-65
2023/01/02 12:05:55;;;;;;;;;;;12.10;99.90;;;;;;5053709;28;20364;-65
2023/01/02 12:08:27;;;;;;;;;;;12.10;99.90;;;;;;5052979;28;20062;-65
2023/01/02 12:10:59;;;;;;;;;;;12.10;99.90;;;;;;5052573;28;20079;-65
2023/01/02 12:13:34;;;;;;;;;;;12.10;99.90;;;;;;5053268;28;19972;-64
2023/01/02 12:16:12;;;;;;;;;;;12.10;99.90;;;;;;5053345;28;19968;-64
2023/01/02 12:18:47;;;;;;;;;;;12.00;99.90;;;;;;5053252;28;20575;-65
2023/01/02 12:21:20;;;;;;;;;;;12.10;99.90;;;;;;5052562;28;19971;-64
2023/01/02 12:24:00;;;;;;;;;;;12.10;99.90;;;;;;5033330;28;20068;-65
2023/01/02 12:26:33;;;;;;;;;;;12.10;99.90;;;;;;5033308;28;20060;-65
2023/01/02 12:29:14;;;;;;;;;;;12.10;99.90;;;;;;5032948;28;20338;-65
2023/01/02 12:32:09;;;;;;;;;;;12.10;99.90;;;;;;5041201;28;19925;-65
2023/01/02 12:34:48;;;;;;;;;;;12.10;99.90;;;;;;5033201;28;19970;-65
2023/01/02 12:37:24;;;;;;;;;;;12.10;99.90;;;;;;5033086;28;20448;-65
2023/01/02 12:40:05;;;;;;;;;;;12.10;99.90;;;;;;5051923;28;20333;-64
2023/01/02 12:42:43;;;;;;;;;;;12.10;99.90;;;;;;5052783;28;20001;-65
2023/01/02 12:45:13;;;;;;;;;;;12.10;99.90;;;;;;5052894;28;20053;-65
2023/01/02 12:47:59;;;;;;;;;;;12.10;99.90;;;;;;5052278;28;20440;-65
2023/01/02 12:50:44;;;;;;;;;;;12.10;99.90;;;;;;5052041;28;20466;-65
2023/01/02 12:53:23;;;;;;;;;;;12.00;99.90;;;;;;5052686;28;20087;-65
2023/01/02 12:55:55;;;;;;;;;;;11.90;99.90;;;;;;5052481;28;19959;-65
2023/01/02 12:58:27;;;;;;;;;;;11.90;99.90;;;;;;5052489;28;19925;-67
2023/01/02 13:01:00;;;;;;;;;;;11.90;99.90;;;;;;5052149;28;19936;-66
2023/01/02 13:03:34;;;;;;;;;;;11.90;99.90;;;;;;5051051;28;19972;-66
2023/01/02 13:06:04;;;;;;;;;;;11.90;99.90;;;;;;5052475;28;20382;-66
2023/01/02 13:08:56;;;;;;;;;;;11.80;99.90;;;;;;5052395;28;19925;-66
2023/01/02 13:11:26;;;;;;;;;;;11.80;99.90;;;;;;5051958;28;20449;-66
2023/01/02 13:13:54;;;;;;;;;;;11.80;99.90;;;;;;5052369;28;19963;-66
2023/01/02 13:16:23;;;;;;;;;;;11.70;99.90;;;;;;5052103;28;20414;-66
2023/01/02 13:18:56;;;;;;;;;;;11.80;99.90;;;;;;5052076;28;20390;-66
2023/01/02 13:21:29;;;;;;;;;;;11.70;99.90;;;;;;5073716;22;19928;-64
2023/01/02 13:23:59;;;;;;;;;;;11.70;99.90;;;;;;5046351;28;19928;-63
2023/01/02 13:26:27;;;;;;;;;;;11.70;99.90;;;;;;5051758;28;19929;-63
2023/01/02 13:28:56;;;;;;;;;;;11.70;99.90;;;;;;5051804;28;19925;-64
2023/01/02 13:31:23;;;;;;;;;;;11.70;99.90;;;;;;5039248;28;19931;-64
2023/01/02 13:34:14;;;;;;;;;;;11.70;99.90;;;;;;5032218;28;20019;-63
2023/01/02 13:36:49;;;;;;;;;;;11.70;99.90;;;;;;5031864;28;20017;-64
2023/01/02 13:39:20;;;;;;;;;;;11.70;99.90;;;;;;5031323;28;20367;-64
2023/01/02 13:44:37;;;;;;;;;;;11.80;99.90;;;;;;5031545;28;20020;-64
2023/01/02 13:47:13;;;;;;;;;;;11.80;99.90;;;;;;5032179;28;19979;-64
2023/01/02 13:49:49;;;;;;;;;;;11.80;99.90;;;;;;5031000;28;19929;-64
2023/01/02 13:52:19;;;;;;;;;;;11.80;99.90;;;;;;5031705;28;20414;-64
2023/01/02 13:55:05;;;;;;;;;;;11.80;99.90;;;;;;5031456;28;19952;-64
2023/01/02 13:57:34;;;;;;;;;;;11.80;99.90;;;;;;5031202;28;19933;-64
2023/01/02 14:00:04;;;;;;;;;;;11.80;99.90;;;;;;5031122;28;19932;-64
2023/01/02 14:02:32;;;;;;;;;;;11.80;99.90;;;;;;5031686;28;19929;-64
2023/01/02 14:05:20;;;;;;;;;;;11.80;99.90;;;;;;5030695;28;20397;-64
2023/01/02 14:07:48;;;;;;;;;;;11.80;99.90;;;;;;5028237;28;19933;-64
2023/01/02 14:10:30;;;;;;;;;;;11.80;99.90;;;;;;5023457;28;19990;-64
2023/01/02 14:13:02;;;;;;;;;;;11.80;99.90;;;;;;5028283;28;20435;-62
2023/01/02 14:15:32;;;;;;;;;;;11.80;99.90;;;;;;5021812;28;20317;-64
2023/01/02 14:18:02;;;;;;;;;;;11.80;99.90;;;;;;5020641;28;19976;-64
2023/01/02 14:20:31;;;;;;;;;;;11.80;99.90;;;;;;5016609;28;20058;-64
2023/01/02 14:23:00;;;;;;;;;;;11.80;99.90;;;;;;5021206;28;20004;-64
2023/01/02 14:25:29;;;;;;;;;;;11.80;99.90;;;;;;5025941;28;19926;-64
2023/01/02 14:27:58;;;;;;;;;;;11.90;99.90;;;;;;5013468;28;19925;-64
2023/01/02 14:30:31;;;;;;;;;;;11.90;99.90;;;;;;5030772;28;20002;-64
2023/01/02 14:32:59;;;;;;;;;;;11.90;99.90;;;;;;5031043;28;19925;-64
2023/01/02 14:35:30;;;;;;;;;;;11.90;99.90;;;;;;5030852;28;20317;-64
2023/01/02 14:38:08;;;;;;;;;;;11.90;99.90;;;;;;5030771;28;20392;-64
2023/01/02 14:40:37;;;;;;;;;;;11.90;99.90;;;;;;5029839;28;19925;-64